Accueil
METAR-TAF:

METAR-TAF

Aéroports :

Georgetown, Île de l'Ascension

latitude: 07-58S, longitude: 014-24W, altitude: 86 m

Observation

Le bulletin a été fait il y a 3 heures et 50 minutes, à 23:50 UTC
Vent 12 kt de sud-est
Température 26°C
Humidité 65%
Pression 1016 hPa
Visibilité 10 km ou plus
Quelques nuages à une hauteur de 2600 ft

METAR: FHAW 252350Z 13012KT 9999 FEW026 26/19 Q1016 BLU

Heure: 03:40 (03:40 UTC)

Prévision

Le bulletin a été fait il y a 5 heures et 10 minutes, à 22:30 UTC
Prévision valable du 26 à 00 UTC au 26 à 18 UTC
Vent 12 kt de sud-est
Visibilité 10 km ou plus
Quelques nuages à une hauteur de 2500 ft
Probabilité 30% :
Temporairement
du 26 à 00 UTC au 26 à 18 UTC
Vent 15 kt de sud-est avec des rafales jusqu'à 25 kt
Nuages épars à une hauteur de 2000 ft
faibles averses de pluie

TAF: FHAW 252230Z 2600/2618 14012KT 9999 FEW025 PROB30 TEMPO 2600/2618 14015G25KT -SHRA SCT020

Observations et prévisions météorologiques de plus de 4000 aéroports (messages METAR et TAF).

Les stations disponibles sont représentées par des disques jaunes et rouges sur la carte.

Passer la souris dessus pour voir le nom de la station.

Cliquer dessus pour voir les observations et prévisions météorologiques.

Pour changer de carte: cliquez sur les boutons verts avec une croix noire pour zoomer, sur le bouton vert avec un tiret pour effectuer un zoom arrière, ou sur les flèches vertes pour les cartes adjacentes.


METAR-TAF: